Time;durP1;ratioP1;P1;durP2;ratioP2;P2;SDS_P1;SDS_P2;PMS_P1;PMS_P2;Temp;Humidity;BMP_temperature;BMP_pressure;BME280_temperature;BME280_humidity;BME280_pressure;Samples;Min_cycle;Max_cycle;Signal;HPM_P1;HPM_P2
2020/12/16 05:01:40;;;;;;;88.00;25.90;;;;;;;;;;5294028;24;180147;-74
2020/12/16 05:04:09;;;;;;;50.23;20.10;;;;;;;;;;4667287;29;182014;-74
2020/12/16 05:06:44;;;;;;;52.17;20.93;;;;;;;;;;4660829;29;178677;-73
2020/12/16 05:09:12;;;;;;;67.33;22.97;;;;;;;;;;4649136;29;179182;-73
2020/12/16 05:11:39;;;;;;;75.30;23.27;;;;;;;;;;4647489;29;178393;-73
2020/12/16 05:14:15;;;;;;;100.80;25.43;;;;;;;;;;4650344;29;177990;-73
2020/12/16 05:16:51;;;;;;;50.33;20.23;;;;;;;;;;4649016;29;178078;-73
2020/12/16 05:19:33;;;;;;;47.03;21.00;;;;;;;;;;4632832;29;179618;-73
2020/12/16 05:22:10;;;;;;;53.73;21.33;;;;;;;;;;4648980;29;178173;-73
2020/12/16 05:24:37;;;;;;;50.33;20.10;;;;;;;;;;4644026;29;179097;-73
2020/12/16 05:27:04;;;;;;;51.93;20.57;;;;;;;;;;4648828;29;178013;-73
2020/12/16 05:29:31;;;;;;;41.10;18.67;;;;;;;;;;4648501;29;182080;-74
2020/12/16 05:31:58;;;;;;;90.73;23.80;;;;;;;;;;4648423;29;181528;-74
2020/12/16 05:34:28;;;;;;;48.43;20.50;;;;;;;;;;4662323;29;179984;-74
2020/12/16 05:36:55;;;;;;;47.27;19.70;;;;;;;;;;4633025;29;177970;-74
2020/12/16 05:39:22;;;;;;;46.63;19.83;;;;;;;;;;4650252;29;179645;-74
2020/12/16 05:41:55;;;;;;;70.63;22.43;;;;;;;;;;4649647;29;179118;-74
2020/12/16 05:44:22;;;;;;;52.37;20.13;;;;;;;;;;4649931;29;178088;-74
2020/12/16 05:46:50;;;;;;;43.63;18.73;;;;;;;;;;4644991;29;179507;-74
2020/12/16 05:49:29;;;;;;;41.10;18.83;;;;;;;;;;4647769;29;179339;-74
2020/12/16 05:52:05;;;;;;;39.37;19.47;;;;;;;;;;4648971;29;180315;-74
2020/12/16 05:54:35;;;;;;;37.63;18.30;;;;;;;;;;4646198;29;182211;-74
2020/12/16 05:57:29;;;;;;;40.87;18.87;;;;;;;;;;4648246;29;178026;-74
2020/12/16 06:00:00;;;;;;;39.53;18.47;;;;;;;;;;4647859;29;180580;-74
2020/12/16 06:02:31;;;;;;;43.67;20.73;;;;;;;;;;4648170;29;178797;-74
2020/12/16 06:04:58;;;;;;;132.60;27.37;;;;;;;;;;4647861;29;178376;-74
2020/12/16 06:07:27;;;;;;;330.50;42.77;;;;;;;;;;4656466;29;177976;-74
2020/12/16 06:09:54;;;;;;;45.50;19.27;;;;;;;;;;4648609;29;180025;-74
2020/12/16 06:12:21;;;;;;;115.23;25.40;;;;;;;;;;4643529;29;178372;-74
2020/12/16 06:14:48;;;;;;;80.97;21.83;;;;;;;;;;4642294;29;178996;-74
2020/12/16 06:17:15;;;;;;;45.60;18.53;;;;;;;;;;4649832;29;177904;-74
2020/12/16 06:19:43;;;;;;;119.23;25.67;;;;;;;;;;4646645;29;183280;-74
2020/12/16 06:22:10;;;;;;;45.77;17.73;;;;;;;;;;4648795;29;181211;-74
2020/12/16 06:24:42;;;;;;;89.83;22.10;;;;;;;;;;4648941;29;178095;-74
2020/12/16 06:27:09;;;;;;;68.80;22.37;;;;;;;;;;4649685;29;178831;-74
2020/12/16 06:29:37;;;;;;;35.27;18.50;;;;;;;;;;4649076;29;180036;-74
2020/12/16 06:32:07;;;;;;;77.83;20.90;;;;;;;;;;4632480;29;182247;-74
2020/12/16 06:34:35;;;;;;;38.50;17.67;;;;;;;;;;4649281;29;178164;-74
2020/12/16 06:37:03;;;;;;;239.17;33.23;;;;;;;;;;4648322;29;176699;-74
2020/12/16 06:39:39;;;;;;;207.20;29.80;;;;;;;;;;4648853;29;181972;-74
2020/12/16 06:42:06;;;;;;;52.13;17.57;;;;;;;;;;4648370;29;179245;-74
2020/12/16 06:44:33;;;;;;;58.80;19.70;;;;;;;;;;4646390;29;182059;-74
2020/12/16 06:47:03;;;;;;;165.67;30.20;;;;;;;;;;4649001;29;177990;-74
2020/12/16 06:49:32;;;;;;;259.97;37.10;;;;;;;;;;4648376;29;179043;-74
2020/12/16 06:52:04;;;;;;;47.70;18.70;;;;;;;;;;4648611;29;178468;-74
2020/12/16 06:54:38;;;;;;;190.17;30.93;;;;;;;;;;4649459;29;178773;-74
2020/12/16 06:57:19;;;;;;;71.93;20.00;;;;;;;;;;4648192;29;178097;-74
2020/12/16 07:00:02;;;;;;;162.60;25.60;;;;;;;;;;4647139;29;182303;-74
2020/12/16 07:02:31;;;;;;;38.87;18.53;;;;;;;;;;4649034;29;177154;-74
2020/12/16 07:04:59;;;;;;;347.43;41.63;;;;;;;;;;4648635;29;179556;-74
2020/12/16 07:07:46;;;;;;;54.63;18.87;;;;;;;;;;4646598;29;178574;-74
2020/12/16 07:10:32;;;;;;;51.40;18.87;;;;;;;;;;4646550;29;182579;-74
2020/12/16 07:13:10;;;;;;;37.80;18.67;;;;;;;;;;4641650;29;182679;-74
2020/12/16 07:15:41;;;;;;;45.63;25.17;;;;;;;;;;4646587;29;178963;-74
2020/12/16 07:18:27;;;;;;;46.30;22.87;;;;;;;;;;4648166;29;178001;-74
2020/12/16 07:21:16;;;;;;;45.90;22.40;;;;;;;;;;4645798;29;179493;-74
2020/12/16 07:23:44;;;;;;;39.57;19.93;;;;;;;;;;4636130;29;179097;-74
2020/12/16 07:26:18;;;;;;;43.50;20.13;;;;;;;;;;4655590;29;178649;-74
2020/12/16 07:28:45;;;;;;;149.63;30.80;;;;;;;;;;4649201;29;177070;-74
2020/12/16 07:31:12;;;;;;;101.83;27.80;;;;;;;;;;4645199;29;179222;-74
2020/12/16 07:33:39;;;;;;;55.47;21.10;;;;;;;;;;4645200;29;178482;-74
2020/12/16 07:36:06;;;;;;;41.07;19.17;;;;;;;;;;4644113;29;181482;-74
2020/12/16 07:38:33;;;;;;;52.00;19.97;;;;;;;;;;4644950;29;178091;-74
2020/12/16 07:40:59;;;;;;;44.93;19.57;;;;;;;;;;4645480;29;178789;-74
2020/12/16 07:43:27;;;;;;;152.17;26.93;;;;;;;;;;4644036;29;180299;-74
2020/12/16 07:46:01;;;;;;;52.97;19.97;;;;;;;;;;4644082;29;177967;-74
2020/12/16 07:48:28;;;;;;;54.43;19.90;;;;;;;;;;4645639;29;178790;-74
2020/12/16 07:50:59;;;;;;;118.97;24.60;;;;;;;;;;4644258;29;182819;-74
2020/12/16 07:53:26;;;;;;;115.13;23.27;;;;;;;;;;4642951;29;177787;-74
2020/12/16 07:56:00;;;;;;;41.37;17.83;;;;;;;;;;4643684;29;178074;-74
2020/12/16 07:58:29;;;;;;;164.47;27.57;;;;;;;;;;4645672;29;178066;-74
2020/12/16 08:01:07;;;;;;;85.57;20.43;;;;;;;;;;4642009;29;184599;-74
2020/12/16 08:03:34;;;;;;;143.17;26.17;;;;;;;;;;4644558;29;182850;-74
2020/12/16 08:06:01;;;;;;;101.50;24.87;;;;;;;;;;4645594;29;178702;-74
2020/12/16 08:08:27;;;;;;;176.53;30.60;;;;;;;;;;4645481;29;178898;-74
2020/12/16 08:10:54;;;;;;;74.87;21.50;;;;;;;;;;4644949;29;179538;-74
2020/12/16 08:13:23;;;;;;;67.13;19.83;;;;;;;;;;4648255;29;179066;-74
2020/12/16 08:15:50;;;;;;;81.67;22.83;;;;;;;;;;4648616;29;179054;-74
2020/12/16 08:18:17;;;;;;;99.33;24.93;;;;;;;;;;4649845;29;176700;-74
2020/12/16 08:20:44;;;;;;;34.80;16.47;;;;;;;;;;4647408;29;180176;-74
2020/12/16 08:23:12;;;;;;;55.20;19.60;;;;;;;;;;4646895;29;177924;-74
2020/12/16 08:25:39;;;;;;;47.37;18.23;;;;;;;;;;4647403;29;181279;-74
2020/12/16 08:28:06;;;;;;;122.40;23.70;;;;;;;;;;4648560;29;178742;-74
2020/12/16 08:30:33;;;;;;;52.03;17.47;;;;;;;;;;4647292;29;179629;-75
2020/12/16 08:33:01;;;;;;;542.53;60.80;;;;;;;;;;4647622;29;179098;-74
2020/12/16 08:35:30;;;;;;;55.37;18.57;;;;;;;;;;4647832;29;180629;-74
2020/12/16 08:38:00;;;;;;;163.20;31.33;;;;;;;;;;4642473;29;179268;-74
2020/12/16 08:40:29;;;;;;;458.13;52.23;;;;;;;;;;4646883;29;179387;-75
2020/12/16 08:43:15;;;;;;;384.07;48.30;;;;;;;;;;4650091;29;178382;-74
2020/12/16 08:45:42;;;;;;;291.63;41.87;;;;;;;;;;4649740;29;178416;-74
2020/12/16 08:48:08;;;;;;;220.93;35.30;;;;;;;;;;4650282;29;178744;-74
2020/12/16 08:50:50;;;;;;;282.13;40.77;;;;;;;;;;4648779;29;183069;-75
2020/12/16 08:53:17;;;;;;;99.27;23.10;;;;;;;;;;4649829;29;181738;-76
2020/12/16 08:55:44;;;;;;;53.73;19.00;;;;;;;;;;4649722;29;178668;-74
2020/12/16 08:58:15;;;;;;;175.43;31.93;;;;;;;;;;4650411;29;178029;-73
2020/12/16 09:00:42;;;;;;;151.57;28.17;;;;;;;;;;4647017;29;183041;-76
2020/12/16 09:03:14;;;;;;;135.00;29.83;;;;;;;;;;4649501;29;178744;-75
2020/12/16 09:05:41;;;;;;;36.50;17.83;;;;;;;;;;4650448;29;178501;-73
2020/12/16 09:08:12;;;;;;;36.97;20.23;;;;;;;;;;4651271;29;176549;-73
2020/12/16 09:10:45;;;;;;;39.13;19.80;;;;;;;;;;4650469;29;179206;-73
2020/12/16 09:13:16;;;;;;;41.73;21.37;;;;;;;;;;4648810;29;178117;-74
2020/12/16 09:15:50;;;;;;;37.80;21.13;;;;;;;;;;4648848;29;181446;-74
2020/12/16 09:18:25;;;;;;;36.43;20.73;;;;;;;;;;4648554;29;178099;-74
2020/12/16 09:20:56;;;;;;;35.23;19.70;;;;;;;;;;4648712;29;181182;-74
2020/12/16 09:23:23;;;;;;;53.37;21.00;;;;;;;;;;4647356;29;179568;-74
2020/12/16 09:25:51;;;;;;;46.97;23.17;;;;;;;;;;4650181;29;178364;-74
2020/12/16 09:28:18;;;;;;;55.50;22.97;;;;;;;;;;4650306;29;177976;-74
2020/12/16 09:30:45;;;;;;;42.27;22.03;;;;;;;;;;4650036;29;178844;-73
2020/12/16 09:33:16;;;;;;;44.53;22.83;;;;;;;;;;4648433;29;179593;-74
2020/12/16 09:35:43;;;;;;;56.10;23.40;;;;;;;;;;4650482;29;177935;-73
2020/12/16 09:38:20;;;;;;;72.87;24.97;;;;;;;;;;4648509;29;178023;-74
2020/12/16 09:40:47;;;;;;;68.53;25.03;;;;;;;;;;4648000;29;183060;-74
2020/12/16 09:43:15;;;;;;;73.20;27.97;;;;;;;;;;4649528;29;180720;-74
2020/12/16 09:45:41;;;;;;;63.83;25.47;;;;;;;;;;4650341;29;178002;-74
2020/12/16 09:48:10;;;;;;;80.47;26.07;;;;;;;;;;4649170;29;178457;-72
2020/12/16 09:50:37;;;;;;;43.03;21.47;;;;;;;;;;4649525;29;179980;-73
2020/12/16 09:53:09;;;;;;;51.63;22.50;;;;;;;;;;4648965;29;178680;-74
2020/12/16 09:55:37;;;;;;;75.57;25.50;;;;;;;;;;4647692;29;179867;-76
2020/12/16 09:58:11;;;;;;;40.67;19.63;;;;;;;;;;4650759;29;177382;-74
2020/12/16 10:00:40;;;;;;;37.60;19.77;;;;;;;;;;4649517;29;179751;-74
2020/12/16 10:03:09;;;;;;;36.37;19.17;;;;;;;;;;4648960;29;178098;-74
2020/12/16 10:05:36;;;;;;;46.23;21.80;;;;;;;;;;4648609;29;181330;-74
2020/12/16 10:08:07;;;;;;;50.90;21.63;;;;;;;;;;4650020;29;178058;-74
2020/12/16 10:10:34;;;;;;;34.37;18.33;;;;;;;;;;4649671;29;179698;-74
2020/12/16 10:13:00;;;;;;;48.97;21.27;;;;;;;;;;4649258;29;178414;-74
2020/12/16 10:15:27;;;;;;;38.77;19.53;;;;;;;;;;4649877;29;178695;-74
2020/12/16 10:17:55;;;;;;;32.77;18.20;;;;;;;;;;4649604;29;177924;-74
2020/12/16 10:20:23;;;;;;;45.53;21.63;;;;;;;;;;4648970;29;178787;-74
2020/12/16 10:22:50;;;;;;;48.43;21.17;;;;;;;;;;4649615;29;178401;-75
2020/12/16 10:25:17;;;;;;;34.60;18.07;;;;;;;;;;4648201;29;178645;-74
2020/12/16 10:27:44;;;;;;;43.80;19.57;;;;;;;;;;4649735;29;178373;-76
2020/12/16 10:30:11;;;;;;;34.67;19.40;;;;;;;;;;4645668;29;183630;-75
2020/12/16 10:32:39;;;;;;;34.20;19.50;;;;;;;;;;4648074;29;180520;-75
2020/12/16 10:35:07;;;;;;;27.80;17.43;;;;;;;;;;4648250;29;178067;-75
2020/12/16 10:37:34;;;;;;;25.60;15.70;;;;;;;;;;4649112;29;178107;-75
2020/12/16 10:40:03;;;;;;;42.87;21.47;;;;;;;;;;4648917;29;179238;-74
2020/12/16 10:42:30;;;;;;;37.37;18.93;;;;;;;;;;4648515;29;178179;-75
2020/12/16 10:44:57;;;;;;;36.73;19.67;;;;;;;;;;4648276;29;179805;-76
2020/12/16 10:47:23;;;;;;;32.23;19.13;;;;;;;;;;4649942;29;177294;-76
2020/12/16 10:49:50;;;;;;;31.73;18.03;;;;;;;;;;4644371;29;179175;-75
2020/12/16 10:52:17;;;;;;;40.67;19.40;;;;;;;;;;4644754;29;179878;-75
2020/12/16 10:54:43;;;;;;;30.33;17.60;;;;;;;;;;4644393;29;182120;-75
2020/12/16 10:57:10;;;;;;;26.53;15.33;;;;;;;;;;4646716;29;177984;-74
2020/12/16 10:59:37;;;;;;;23.20;14.80;;;;;;;;;;4646418;29;178538;-75
2020/12/16 11:02:10;;;;;;;19.27;12.27;;;;;;;;;;4644726;29;178117;-75
2020/12/16 11:04:37;;;;;;;13.13;9.93;;;;;;;;;;4646425;29;180953;-74
2020/12/16 11:07:07;;;;;;;14.93;9.93;;;;;;;;;;4645547;29;178204;-75
2020/12/16 11:09:34;;;;;;;18.23;10.57;;;;;;;;;;4647124;29;179797;-75
2020/12/16 11:12:01;;;;;;;11.30;9.70;;;;;;;;;;4644473;29;178612;-74
2020/12/16 11:14:28;;;;;;;10.83;9.07;;;;;;;;;;4645877;29;178715;-75
2020/12/16 11:16:55;;;;;;;11.40;8.97;;;;;;;;;;4647191;29;180243;-74
2020/12/16 11:19:22;;;;;;;14.50;10.07;;;;;;;;;;4644705;29;182172;-74
2020/12/16 11:21:50;;;;;;;13.90;10.67;;;;;;;;;;4641984;29;185900;-74
2020/12/16 11:24:18;;;;;;;13.47;9.97;;;;;;;;;;4641939;29;178236;-74
2020/12/16 11:26:46;;;;;;;14.27;10.20;;;;;;;;;;4646005;29;178667;-74
2020/12/16 11:29:14;;;;;;;15.03;10.70;;;;;;;;;;4645280;29;180781;-74
2020/12/16 11:31:42;;;;;;;12.13;9.63;;;;;;;;;;4647731;29;179746;-74
2020/12/16 11:34:09;;;;;;;9.03;7.57;;;;;;;;;;4649516;29;178622;-74
2020/12/16 11:36:36;;;;;;;9.37;7.90;;;;;;;;;;4650633;29;176630;-73
2020/12/16 11:39:03;;;;;;;10.63;8.10;;;;;;;;;;4649525;29;179373;-74
2020/12/16 11:41:30;;;;;;;8.93;7.10;;;;;;;;;;4648866;29;178260;-74
2020/12/16 11:43:56;;;;;;;7.63;6.40;;;;;;;;;;4648273;29;181854;-74
2020/12/16 11:46:23;;;;;;;7.83;7.03;;;;;;;;;;4651272;29;178559;-74
2020/12/16 11:48:50;;;;;;;9.17;7.47;;;;;;;;;;4651987;29;180515;-74
2020/12/16 11:51:19;;;;;;;9.13;7.30;;;;;;;;;;4652325;29;178376;-74
2020/12/16 11:53:45;;;;;;;6.97;6.23;;;;;;;;;;4652463;29;178041;-74
2020/12/16 11:56:12;;;;;;;7.17;6.07;;;;;;;;;;4652660;29;177969;-74
2020/12/16 11:58:39;;;;;;;7.13;5.87;;;;;;;;;;4652643;29;179371;-74
2020/12/16 12:01:06;;;;;;;6.50;5.77;;;;;;;;;;4652225;29;178662;-75
2020/12/16 12:03:33;;;;;;;9.53;6.87;;;;;;;;;;4652789;29;178113;-74
2020/12/16 12:05:59;;;;;;;9.47;7.90;;;;;;;;;;4650581;29;178224;-74
2020/12/16 12:08:26;;;;;;;7.47;6.33;;;;;;;;;;4650739;29;182651;-74
2020/12/16 12:10:53;;;;;;;7.03;6.00;;;;;;;;;;4652143;29;181129;-75
2020/12/16 12:13:19;;;;;;;7.63;6.50;;;;;;;;;;4650663;29;178006;-75
2020/12/16 12:15:46;;;;;;;9.43;6.63;;;;;;;;;;4652298;29;177999;-74
2020/12/16 12:18:13;;;;;;;10.13;8.77;;;;;;;;;;4652006;29;179434;-73
2020/12/16 12:20:39;;;;;;;12.83;11.63;;;;;;;;;;4652015;29;177890;-75
2020/12/16 12:23:07;;;;;;;12.07;9.00;;;;;;;;;;4650623;29;178398;-75
2020/12/16 12:25:34;;;;;;;16.80;13.00;;;;;;;;;;4652520;29;176529;-75
2020/12/16 12:28:01;;;;;;;8.83;7.60;;;;;;;;;;4649597;29;178892;-75
2020/12/16 12:30:27;;;;;;;9.67;8.37;;;;;;;;;;4650402;29;181674;-75
2020/12/16 12:32:54;;;;;;;10.07;8.40;;;;;;;;;;4650786;29;181332;-76
2020/12/16 12:35:21;;;;;;;22.20;10.37;;;;;;;;;;4651839;29;178113;-75
2020/12/16 12:37:47;;;;;;;21.77;14.10;;;;;;;;;;4649118;29;181268;-75
2020/12/16 12:40:14;;;;;;;16.37;12.60;;;;;;;;;;4650439;29;178346;-75
2020/12/16 12:42:41;;;;;;;12.47;9.30;;;;;;;;;;4649583;29;178396;-76
2020/12/16 12:45:08;;;;;;;20.57;11.70;;;;;;;;;;4652102;29;180046;-74
2020/12/16 12:47:34;;;;;;;21.03;12.83;;;;;;;;;;4650032;29;181360;-74
2020/12/16 12:50:01;;;;;;;42.20;27.63;;;;;;;;;;4651301;29;178296;-75
2020/12/16 12:52:28;;;;;;;29.30;18.50;;;;;;;;;;4648459;29;178533;-75
2020/12/16 12:54:55;;;;;;;28.43;18.37;;;;;;;;;;4650062;29;177896;-75
2020/12/16 12:57:24;;;;;;;18.17;12.50;;;;;;;;;;4648023;29;182850;-75
2020/12/16 12:59:56;;;;;;;16.87;11.07;;;;;;;;;;4636559;29;183434;-75
2020/12/16 13:02:22;;;;;;;14.13;10.47;;;;;;;;;;4634002;29;179371;-75
2020/12/16 13:04:49;;;;;;;12.80;9.43;;;;;;;;;;4648511;29;178745;-75
2020/12/16 13:07:16;;;;;;;10.50;8.80;;;;;;;;;;4647012;29;179850;-76
2020/12/16 13:09:42;;;;;;;11.10;8.80;;;;;;;;;;4648058;29;178940;-75
2020/12/16 13:12:09;;;;;;;14.80;9.93;;;;;;;;;;4648443;29;177932;-76
2020/12/16 13:14:45;;;;;;;13.53;9.87;;;;;;;;;;4647818;29;177025;-76
2020/12/16 13:17:11;;;;;;;14.50;9.90;;;;;;;;;;4648265;29;179417;-75
2020/12/16 13:19:38;;;;;;;14.20;10.00;;;;;;;;;;4647737;29;177999;-74
2020/12/16 13:22:08;;;;;;;14.33;10.37;;;;;;;;;;4644077;29;181924;-79
2020/12/16 13:24:36;;;;;;;10.63;8.83;;;;;;;;;;4647140;29;178898;-75
2020/12/16 13:27:03;;;;;;;11.23;8.87;;;;;;;;;;4647627;29;180053;-76
2020/12/16 13:29:30;;;;;;;10.77;8.03;;;;;;;;;;4655417;29;178258;-75
2020/12/16 13:31:57;;;;;;;14.43;8.27;;;;;;;;;;4647745;29;178538;-75
2020/12/16 13:34:23;;;;;;;10.67;8.70;;;;;;;;;;4649275;29;179488;-75
2020/12/16 13:36:51;;;;;;;9.37;7.90;;;;;;;;;;4650705;29;179199;-75
2020/12/16 13:39:18;;;;;;;19.60;8.93;;;;;;;;;;4649729;29;178685;-75
2020/12/16 13:41:47;;;;;;;14.67;8.93;;;;;;;;;;4650775;29;178669;-75
2020/12/16 13:44:14;;;;;;;25.13;9.40;;;;;;;;;;4651022;29;178074;-75
2020/12/16 13:46:41;;;;;;;12.47;8.93;;;;;;;;;;4647986;29;184343;-75
2020/12/16 13:49:10;;;;;;;11.50;8.37;;;;;;;;;;4650034;29;182871;-75
2020/12/16 13:51:37;;;;;;;20.17;8.63;;;;;;;;;;4650467;29;178451;-75
2020/12/16 13:54:03;;;;;;;11.07;7.93;;;;;;;;;;4650265;29;179042;-75
2020/12/16 13:56:30;;;;;;;11.50;8.13;;;;;;;;;;4649890;29;178817;-75
2020/12/16 13:58:57;;;;;;;10.50;8.00;;;;;;;;;;4650975;29;179593;-75
2020/12/16 14:01:25;;;;;;;10.87;8.10;;;;;;;;;;4648605;29;177956;-75
2020/12/16 14:03:52;;;;;;;11.17;7.70;;;;;;;;;;4651465;29;177617;-75
2020/12/16 14:06:19;;;;;;;13.43;8.23;;;;;;;;;;4650569;29;178691;-75
2020/12/16 14:08:46;;;;;;;10.07;7.90;;;;;;;;;;4649740;29;177894;-74
2020/12/16 14:11:13;;;;;;;10.33;7.37;;;;;;;;;;4648713;29;182004;-73
2020/12/16 14:13:40;;;;;;;11.03;7.83;;;;;;;;;;4649392;29;177981;-74
2020/12/16 14:16:10;;;;;;;26.90;8.70;;;;;;;;;;4650348;29;178626;-73
2020/12/16 14:18:38;;;;;;;19.37;8.60;;;;;;;;;;4648990;29;181173;-74
2020/12/16 14:21:06;;;;;;;17.30;8.13;;;;;;;;;;4650117;29;178077;-78
2020/12/16 14:23:33;;;;;;;11.77;7.73;;;;;;;;;;4649931;29;179153;-75
2020/12/16 14:26:00;;;;;;;10.53;7.73;;;;;;;;;;4650244;29;179097;-75
2020/12/16 14:28:27;;;;;;;9.90;7.77;;;;;;;;;;4649558;29;179328;-74
2020/12/16 14:30:54;;;;;;;11.57;8.90;;;;;;;;;;4649562;29;177944;-76
2020/12/16 14:33:22;;;;;;;16.83;8.87;;;;;;;;;;4650302;29;178046;-76
2020/12/16 14:35:49;;;;;;;17.50;8.60;;;;;;;;;;4648183;29;182197;-74
2020/12/16 14:38:18;;;;;;;10.50;8.23;;;;;;;;;;4649786;29;181683;-76
2020/12/16 14:40:49;;;;;;;11.27;8.87;;;;;;;;;;4648436;29;178146;-75
2020/12/16 14:43:17;;;;;;;11.23;8.03;;;;;;;;;;4649682;29;178376;-76
2020/12/16 14:45:44;;;;;;;13.57;8.63;;;;;;;;;;4648375;29;180131;-77
2020/12/16 14:48:11;;;;;;;11.20;8.27;;;;;;;;;;4649670;29;178663;-76
2020/12/16 14:50:39;;;;;;;14.20;9.07;;;;;;;;;;4649410;29;178238;-75
2020/12/16 14:53:06;;;;;;;16.00;8.70;;;;;;;;;;4650228;29;177218;-75
2020/12/16 14:55:33;;;;;;;13.20;8.70;;;;;;;;;;4648428;29;178771;-77
2020/12/16 14:58:04;;;;;;;13.50;8.80;;;;;;;;;;4649554;29;178497;-75
2020/12/16 15:00:32;;;;;;;11.17;7.97;;;;;;;;;;4646392;29;182011;-75
2020/12/16 15:02:59;;;;;;;13.70;8.30;;;;;;;;;;4648739;29;178113;-75
2020/12/16 15:05:26;;;;;;;29.00;8.83;;;;;;;;;;4648779;29;179445;-76
2020/12/16 15:07:53;;;;;;;19.77;7.60;;;;;;;;;;4648808;29;178045;-76
2020/12/16 15:10:22;;;;;;;21.30;8.23;;;;;;;;;;4648904;29;177993;-76
2020/12/16 15:12:50;;;;;;;13.17;8.77;;;;;;;;;;4648022;29;178149;-76
2020/12/16 15:15:17;;;;;;;17.40;13.87;;;;;;;;;;4647928;29;183832;-76
2020/12/16 15:17:44;;;;;;;24.10;19.10;;;;;;;;;;4648572;29;178033;-76
2020/12/16 15:20:11;;;;;;;23.23;12.93;;;;;;;;;;4647374;29;178422;-76
2020/12/16 15:22:38;;;;;;;38.43;12.27;;;;;;;;;;4643578;29;178127;-76
2020/12/16 15:25:08;;;;;;;23.20;11.33;;;;;;;;;;4636239;29;183632;-77
2020/12/16 15:27:36;;;;;;;30.23;10.50;;;;;;;;;;4646525;29;181057;-77
2020/12/16 15:30:04;;;;;;;29.07;11.00;;;;;;;;;;4647558;29;178294;-77
2020/12/16 15:32:34;;;;;;;14.70;8.73;;;;;;;;;;4647544;29;178585;-77
2020/12/16 15:35:03;;;;;;;51.67;13.00;;;;;;;;;;4644630;29;183280;-77
2020/12/16 15:37:30;;;;;;;37.00;9.93;;;;;;;;;;4644818;29;181232;-76
2020/12/16 15:39:57;;;;;;;18.27;8.93;;;;;;;;;;4642242;29;178770;-77
2020/12/16 15:42:23;;;;;;;18.33;9.50;;;;;;;;;;4629177;29;176985;-77
2020/12/16 15:44:50;;;;;;;26.83;10.73;;;;;;;;;;4640077;29;178727;-77
2020/12/16 15:47:19;;;;;;;20.73;9.60;;;;;;;;;;4645685;29;180775;-77
2020/12/16 15:49:46;;;;;;;17.53;9.30;;;;;;;;;;4645633;29;182071;-77
2020/12/16 15:52:12;;;;;;;19.03;9.37;;;;;;;;;;4648567;29;178807;-77
2020/12/16 15:54:39;;;;;;;24.90;9.87;;;;;;;;;;4642468;29;179797;-77
2020/12/16 15:57:09;;;;;;;28.30;9.27;;;;;;;;;;4647013;29;178453;-77
2020/12/16 15:59:35;;;;;;;29.13;10.07;;;;;;;;;;4645977;29;178107;-77
2020/12/16 16:02:02;;;;;;;34.80;9.73;;;;;;;;;;4644192;29;178872;-77
2020/12/16 16:04:29;;;;;;;28.93;10.47;;;;;;;;;;4644879;29;179881;-77
2020/12/16 16:06:56;;;;;;;20.33;10.43;;;;;;;;;;4644231;29;180249;-76
2020/12/16 16:09:23;;;;;;;12.50;9.43;;;;;;;;;;4645230;29;177886;-77
2020/12/16 16:12:02;;;;;;;12.97;10.20;;;;;;;;;;4646342;29;178518;-77
2020/12/16 16:14:32;;;;;;;13.40;10.40;;;;;;;;;;4643505;29;182019;-77
2020/12/16 16:17:02;;;;;;;13.37;10.20;;;;;;;;;;4644200;29;182245;-77
2020/12/16 16:19:32;;;;;;;14.87;10.97;;;;;;;;;;4643974;29;177859;-77
2020/12/16 16:22:04;;;;;;;21.33;11.77;;;;;;;;;;4641168;29;179022;-77
2020/12/16 16:24:32;;;;;;;17.43;11.90;;;;;;;;;;4642336;29;179365;-76
2020/12/16 16:26:59;;;;;;;16.60;12.57;;;;;;;;;;4641305;29;178670;-77
2020/12/16 16:29:29;;;;;;;19.07;12.70;;;;;;;;;;4642924;29;178016;-77
2020/12/16 16:31:57;;;;;;;21.27;13.10;;;;;;;;;;4645411;29;177195;-77
2020/12/16 16:34:25;;;;;;;18.00;13.40;;;;;;;;;;4653011;29;178652;-76
2020/12/16 16:36:51;;;;;;;23.70;14.00;;;;;;;;;;4646688;29;178076;-76
2020/12/16 16:39:18;;;;;;;60.87;16.13;;;;;;;;;;4649621;29;181643;-75
2020/12/16 16:41:46;;;;;;;57.43;17.37;;;;;;;;;;4648340;29;179264;-74
2020/12/16 16:44:14;;;;;;;63.03;18.30;;;;;;;;;;4645508;29;181689;-74
2020/12/16 16:46:40;;;;;;;23.73;15.27;;;;;;;;;;4646147;29;178621;-75
2020/12/16 16:49:10;;;;;;;23.03;15.27;;;;;;;;;;4645538;29;178462;-75
2020/12/16 16:51:41;;;;;;;20.93;14.67;;;;;;;;;;4642593;29;179803;-75
2020/12/16 16:54:08;;;;;;;46.70;17.27;;;;;;;;;;4644706;29;179015;-75
2020/12/16 16:56:36;;;;;;;24.77;16.17;;;;;;;;;;4643576;29;181141;-76
2020/12/16 16:59:03;;;;;;;25.37;17.03;;;;;;;;;;4641027;29;178000;-76
2020/12/16 17:01:30;;;;;;;23.87;16.47;;;;;;;;;;4645583;29;178389;-75
2020/12/16 17:03:57;;;;;;;49.57;19.07;;;;;;;;;;4653271;29;181934;-76
2020/12/16 17:06:27;;;;;;;78.20;22.03;;;;;;;;;;4641856;29;181617;-76
2020/12/16 17:08:55;;;;;;;40.80;19.53;;;;;;;;;;4643970;29;180709;-75
2020/12/16 17:11:22;;;;;;;29.13;18.27;;;;;;;;;;4642606;29;178968;-75
2020/12/16 17:13:49;;;;;;;52.90;21.40;;;;;;;;;;4645155;29;183299;-75
2020/12/16 17:16:16;;;;;;;25.50;16.93;;;;;;;;;;4655253;29;182411;-76
2020/12/16 17:18:44;;;;;;;24.40;17.80;;;;;;;;;;4643103;29;179044;-76
2020/12/16 17:21:17;;;;;;;66.43;20.33;;;;;;;;;;4646048;29;177636;-75
2020/12/16 17:23:50;;;;;;;24.10;16.93;;;;;;;;;;4647116;29;178750;-75
2020/12/16 17:26:17;;;;;;;25.30;17.17;;;;;;;;;;4660111;29;180708;-76
2020/12/16 17:28:45;;;;;;;26.23;16.80;;;;;;;;;;4642119;29;181328;-76
2020/12/16 17:31:17;;;;;;;25.37;16.43;;;;;;;;;;4644665;29;178181;-75
2020/12/16 17:33:45;;;;;;;29.37;16.97;;;;;;;;;;4627050;29;179732;-75
2020/12/16 17:36:12;;;;;;;32.70;17.67;;;;;;;;;;4645550;29;178684;-75
2020/12/16 17:38:39;;;;;;;42.20;18.93;;;;;;;;;;4646696;29;177950;-75
2020/12/16 17:41:08;;;;;;;37.53;18.93;;;;;;;;;;4645549;29;178668;-76
2020/12/16 17:43:36;;;;;;;109.73;23.77;;;;;;;;;;4644644;29;180835;-75
2020/12/16 17:46:03;;;;;;;23.40;16.53;;;;;;;;;;4647121;29;179596;-76
2020/12/16 17:48:30;;;;;;;41.23;19.23;;;;;;;;;;4673065;29;178505;-75
2020/12/16 17:50:57;;;;;;;142.23;26.93;;;;;;;;;;4644978;29;178577;-76
2020/12/16 17:53:26;;;;;;;46.73;19.73;;;;;;;;;;4641238;29;183243;-76
2020/12/16 17:55:55;;;;;;;24.50;16.73;;;;;;;;;;4644328;29;181772;-77
2020/12/16 17:58:25;;;;;;;35.60;18.23;;;;;;;;;;4642152;29;178043;-77
2020/12/16 18:00:51;;;;;;;37.27;17.57;;;;;;;;;;4642564;29;180509;-76
2020/12/16 18:03:18;;;;;;;27.40;17.00;;;;;;;;;;4640902;29;181173;-75
2020/12/16 18:05:48;;;;;;;40.93;18.60;;;;;;;;;;4637846;29;178133;-76
2020/12/16 18:08:35;;;;;;;60.67;18.97;;;;;;;;;;4644358;29;181511;-76
2020/12/16 18:11:02;;;;;;;24.93;16.27;;;;;;;;;;4644473;29;176682;-77
2020/12/16 18:13:40;;;;;;;28.40;17.20;;;;;;;;;;4629479;29;180249;-77
2020/12/16 18:16:09;;;;;;;41.50;18.50;;;;;;;;;;4645554;29;178349;-77
2020/12/16 18:18:39;;;;;;;42.50;18.53;;;;;;;;;;4643425;29;181349;-77
2020/12/16 18:21:11;;;;;;;56.57;18.90;;;;;;;;;;4658002;29;178823;-77
2020/12/16 18:23:39;;;;;;;34.23;17.43;;;;;;;;;;4648079;29;180539;-76
2020/12/16 18:26:08;;;;;;;34.43;17.60;;;;;;;;;;4646079;29;179595;-76
2020/12/16 18:28:35;;;;;;;33.40;17.57;;;;;;;;;;4645618;29;178254;-75
2020/12/16 18:31:02;;;;;;;38.43;18.90;;;;;;;;;;4652685;29;179544;-76
2020/12/16 18:33:38;;;;;;;49.50;20.17;;;;;;;;;;4627537;29;179325;-75
2020/12/16 18:36:05;;;;;;;30.80;17.17;;;;;;;;;;4636809;29;179348;-77
2020/12/16 18:38:40;;;;;;;31.50;18.17;;;;;;;;;;4641562;29;178282;-75
2020/12/16 18:41:11;;;;;;;28.27;18.30;;;;;;;;;;4646572;29;177834;-75
2020/12/16 18:43:41;;;;;;;28.27;17.67;;;;;;;;;;4644200;29;182036;-75
2020/12/16 18:46:22;;;;;;;59.07;20.67;;;;;;;;;;4646394;29;211501;-75
2020/12/16 18:48:51;;;;;;;28.60;16.73;;;;;;;;;;4645943;29;179548;-75
2020/12/16 18:51:21;;;;;;;27.67;17.83;;;;;;;;;;4646714;29;178542;-75
2020/12/16 18:53:52;;;;;;;33.00;17.40;;;;;;;;;;4644582;29;178748;-75
2020/12/16 18:56:19;;;;;;;30.77;17.43;;;;;;;;;;4645489;29;181409;-75
2020/12/16 18:58:49;;;;;;;37.60;18.40;;;;;;;;;;4643724;29;178360;-75
2020/12/16 19:01:35;;;;;;;30.90;18.13;;;;;;;;;;4639749;29;177217;-74
2020/12/16 19:04:03;;;;;;;28.00;16.90;;;;;;;;;;4646485;29;179200;-74
2020/12/16 19:06:29;;;;;;;41.03;18.30;;;;;;;;;;4643302;29;180944;-75
2020/12/16 19:12:52;;;;;;;46.57;18.77;;;;;;;;;;4640808;29;178987;-76
2020/12/16 19:16:01;;;;;;;27.43;15.93;;;;;;;;;;4641210;29;180378;-75
2020/12/16 19:18:28;;;;;;;41.67;18.53;;;;;;;;;;4642738;29;178998;-75
2020/12/16 19:20:58;;;;;;;29.23;17.60;;;;;;;;;;4647542;29;178471;-75